sensor_id;sensor_type;location;lat;lon;timestamp;pressure;altitude;pressure_sealevel;temperature;humidity
18697;BME280;22617;43.690;27.956;2024-02-26T00:04:53;98650.44;;;8.93;100.00
18697;BME280;22617;43.690;27.956;2024-02-26T00:09:56;98640.88;;;9.04;100.00
18697;BME280;22617;43.690;27.956;2024-02-26T00:15:01;98640.00;;;9.09;100.00
18697;BME280;22617;43.690;27.956;2024-02-26T00:20:06;98641.72;;;9.15;100.00
18697;BME280;22617;43.690;27.956;2024-02-26T00:25:11;98633.88;;;9.21;100.00
18697;BME280;22617;43.690;27.956;2024-02-26T00:30:17;98638.19;;;9.27;100.00
18697;BME280;22617;43.690;27.956;2024-02-26T00:35:20;98625.16;;;9.34;100.00
18697;BME280;22617;43.690;27.956;2024-02-26T00:40:24;98624.25;;;9.43;100.00
18697;BME280;22617;43.690;27.956;2024-02-26T00:45:29;98615.59;;;9.36;100.00
18697;BME280;22617;43.690;27.956;2024-02-26T00:50:34;98613.94;;;9.22;100.00
18697;BME280;22617;43.690;27.956;2024-02-26T00:55:37;98605.31;;;9.19;100.00
18697;BME280;22617;43.690;27.956;2024-02-26T01:00:43;98603.63;;;9.09;100.00
18697;BME280;22617;43.690;27.956;2024-02-26T01:05:46;98601.00;;;9.08;100.00
18697;BME280;22617;43.690;27.956;2024-02-26T01:10:50;98601.97;;;8.92;100.00
18697;BME280;22617;43.690;27.956;2024-02-26T01:15:56;98597.59;;;8.94;100.00
18697;BME280;22617;43.690;27.956;2024-02-26T01:21:00;98594.19;;;8.83;100.00
18697;BME280;22617;43.690;27.956;2024-02-26T01:26:03;98598.56;;;8.76;100.00
18697;BME280;22617;43.690;27.956;2024-02-26T01:31:09;98603.78;;;8.64;100.00
18697;BME280;22617;43.690;27.956;2024-02-26T01:36:12;98600.31;;;8.54;100.00
18697;BME280;22617;43.690;27.956;2024-02-26T01:41:16;98585.66;;;8.43;100.00
18697;BME280;22617;43.690;27.956;2024-02-26T01:46:21;98586.56;;;8.29;100.00
18697;BME280;22617;43.690;27.956;2024-02-26T01:51:25;98580.47;;;8.20;100.00
18697;BME280;22617;43.690;27.956;2024-02-26T01:56:29;98587.41;;;8.12;100.00
18697;BME280;22617;43.690;27.956;2024-02-26T02:01:36;98589.13;;;8.08;100.00
18697;BME280;22617;43.690;27.956;2024-02-26T02:06:42;98590.88;;;7.93;100.00
18697;BME280;22617;43.690;27.956;2024-02-26T02:11:49;98583.94;;;7.92;100.00
18697;BME280;22617;43.690;27.956;2024-02-26T02:16:54;98594.34;;;7.85;100.00
18697;BME280;22617;43.690;27.956;2024-02-26T02:21:59;98606.44;;;7.93;100.00
18697;BME280;22617;43.690;27.956;2024-02-26T02:27:03;98601.22;;;7.77;100.00
18697;BME280;22617;43.690;27.956;2024-02-26T02:32:07;98603.84;;;7.80;100.00
18697;BME280;22617;43.690;27.956;2024-02-26T02:37:12;98605.56;;;7.84;100.00
18697;BME280;22617;43.690;27.956;2024-02-26T02:42:16;98615.94;;;7.80;100.00
18697;BME280;22617;43.690;27.956;2024-02-26T02:47:19;98615.97;;;7.81;100.00
18697;BME280;22617;43.690;27.956;2024-02-26T02:52:24;98608.16;;;7.87;100.00
18697;BME280;22617;43.690;27.956;2024-02-26T02:57:28;98613.34;;;7.78;100.00
18697;BME280;22617;43.690;27.956;2024-02-26T03:02:32;98606.44;;;7.71;100.00
18697;BME280;22617;43.690;27.956;2024-02-26T03:07:39;98598.63;;;7.47;100.00
18697;BME280;22617;43.690;27.956;2024-02-26T03:12:42;98601.22;;;7.50;100.00
18697;BME280;22617;43.690;27.956;2024-02-26T03:17:46;98596.88;;;7.46;100.00
18697;BME280;22617;43.690;27.956;2024-02-26T03:22:51;98604.63;;;7.28;100.00
18697;BME280;22617;43.690;27.956;2024-02-26T03:27:54;98607.22;;;7.29;100.00
18697;BME280;22617;43.690;27.956;2024-02-26T03:32:58;98607.22;;;7.26;100.00
18697;BME280;22617;43.690;27.956;2024-02-26T03:38:03;98612.44;;;7.37;100.00
18697;BME280;22617;43.690;27.956;2024-02-26T03:43:07;98606.38;;;7.32;100.00
18697;BME280;22617;43.690;27.956;2024-02-26T03:48:10;98608.09;;;7.27;100.00
18697;BME280;22617;43.690;27.956;2024-02-26T03:53:15;98608.94;;;7.30;100.00
18697;BME280;22617;43.690;27.956;2024-02-26T03:58:19;98597.72;;;7.19;100.00
18697;BME280;22617;43.690;27.956;2024-02-26T04:03:22;98595.06;;;7.12;100.00
18697;BME280;22617;43.690;27.956;2024-02-26T04:08:27;98602.84;;;7.16;100.00
18697;BME280;22617;43.690;27.956;2024-02-26T04:13:31;98601.09;;;6.98;100.00
18697;BME280;22617;43.690;27.956;2024-02-26T04:18:34;98594.13;;;6.88;100.00
18697;BME280;22617;43.690;27.956;2024-02-26T04:23:39;98588.09;;;6.85;100.00
18697;BME280;22617;43.690;27.956;2024-02-26T04:28:43;98587.19;;;6.86;100.00
18697;BME280;22617;43.690;27.956;2024-02-26T04:33:47;98589.78;;;6.83;100.00
18697;BME280;22617;43.690;27.956;2024-02-26T04:38:52;98590.63;;;6.79;100.00
18697;BME280;22617;43.690;27.956;2024-02-26T04:43:58;98595.81;;;6.82;100.00
18697;BME280;22617;43.690;27.956;2024-02-26T04:49:01;98595.88;;;6.95;100.00
18697;BME280;22617;43.690;27.956;2024-02-26T04:54:06;98590.75;;;7.05;100.00
18697;BME280;22617;43.690;27.956;2024-02-26T04:59:10;98598.47;;;6.95;100.00
18697;BME280;22617;43.690;27.956;2024-02-26T05:04:14;98601.09;;;7.08;100.00
18697;BME280;22617;43.690;27.956;2024-02-26T05:09:19;98604.50;;;6.91;100.00
18697;BME280;22617;43.690;27.956;2024-02-26T05:14:22;98601.84;;;6.76;100.00
18697;BME280;22617;43.690;27.956;2024-02-26T05:19:26;98607.84;;;6.69;100.00
18697;BME280;22617;43.690;27.956;2024-02-26T05:24:31;98605.22;;;6.63;100.00
18697;BME280;22617;43.690;27.956;2024-02-26T05:29:34;98604.34;;;6.58;100.00
18697;BME280;22617;43.690;27.956;2024-02-26T05:34:38;98605.19;;;6.57;100.00
18697;BME280;22617;43.690;27.956;2024-02-26T05:39:46;98604.31;;;6.53;100.00
18697;BME280;22617;43.690;27.956;2024-02-26T05:44:49;98609.53;;;6.56;100.00
18697;BME280;22617;43.690;27.956;2024-02-26T05:49:53;98608.69;;;6.67;100.00
18697;BME280;22617;43.690;27.956;2024-02-26T05:54:58;98601.06;;;6.92;100.00
18697;BME280;22617;43.690;27.956;2024-02-26T06:00:04;98593.31;;;7.01;100.00
18697;BME280;22617;43.690;27.956;2024-02-26T06:05:14;98589.06;;;7.25;100.00
18697;BME280;22617;43.690;27.956;2024-02-26T06:10:20;98603.81;;;7.50;100.00
18697;BME280;22617;43.690;27.956;2024-02-26T06:15:23;98605.56;;;7.71;100.00
18697;BME280;22617;43.690;27.956;2024-02-26T06:20:27;98613.38;;;7.91;100.00
18697;BME280;22617;43.690;27.956;2024-02-26T06:25:32;98625.47;;;7.95;100.00
18697;BME280;22617;43.690;27.956;2024-02-26T06:30:35;98615.94;;;7.92;100.00
18697;BME280;22617;43.690;27.956;2024-02-26T06:35:39;98605.56;;;8.07;100.00
18697;BME280;22617;43.690;27.956;2024-02-26T06:40:44;98609.88;;;8.28;100.00
18697;BME280;22617;43.690;27.956;2024-02-26T06:45:48;98625.47;;;8.52;100.00
18697;BME280;22617;43.690;27.956;2024-02-26T06:50:51;98634.06;;;8.63;100.00
18697;BME280;22617;43.690;27.956;2024-02-26T06:55:56;98644.44;;;8.79;100.00
18697;BME280;22617;43.690;27.956;2024-02-26T07:00:59;98657.47;;;8.68;100.00
18697;BME280;22617;43.690;27.956;2024-02-26T07:06:04;98658.31;;;8.78;100.00
18697;BME280;22617;43.690;27.956;2024-02-26T07:11:10;98657.38;;;8.98;100.00
18697;BME280;22617;43.690;27.956;2024-02-26T07:16:13;98661.59;;;9.27;100.00
18697;BME280;22617;43.690;27.956;2024-02-26T07:21:17;98659.69;;;9.63;100.00
18697;BME280;22617;43.690;27.956;2024-02-26T07:26:22;98673.41;;;9.87;100.00
18697;BME280;22617;43.690;27.956;2024-02-26T07:31:27;98670.63;;;10.11;100.00
18697;BME280;22617;43.690;27.956;2024-02-26T07:36:30;98667.13;;;10.21;100.00
18697;BME280;22617;43.690;27.956;2024-02-26T07:41:35;98661.59;;;10.56;100.00
18697;BME280;22617;43.690;27.956;2024-02-26T07:46:41;98655.03;;;11.01;100.00
18697;BME280;22617;43.690;27.956;2024-02-26T07:51:44;98663.63;;;11.12;100.00
18697;BME280;22617;43.690;27.956;2024-02-26T07:56:49;98663.41;;;11.29;100.00
18697;BME280;22617;43.690;27.956;2024-02-26T08:01:53;98658.44;;;11.75;100.00
18697;BME280;22617;43.690;27.956;2024-02-26T08:07:00;98661.66;;;11.95;100.00
18697;BME280;22617;43.690;27.956;2024-02-26T08:12:06;98665.63;;;12.19;100.00
18697;BME280;22617;43.690;27.956;2024-02-26T08:17:10;98667.66;;;12.54;100.00
18697;BME280;22617;43.690;27.956;2024-02-26T08:22:13;98659.38;;;12.78;100.00
18697;BME280;22617;43.690;27.956;2024-02-26T08:27:19;98659.81;;;13.01;100.00
18697;BME280;22617;43.690;27.956;2024-02-26T08:32:26;98660.69;;;13.00;100.00
18697;BME280;22617;43.690;27.956;2024-02-26T08:37:30;98656.56;;;13.35;100.00
18697;BME280;22617;43.690;27.956;2024-02-26T08:42:35;98661.69;;;13.81;100.00
18697;BME280;22617;43.690;27.956;2024-02-26T08:47:38;98662.19;;;14.33;100.00
18697;BME280;22617;43.690;27.956;2024-02-26T08:52:42;98658.38;;;14.47;100.00
18697;BME280;22617;43.690;27.956;2024-02-26T08:57:47;98670.28;;;14.60;100.00
18697;BME280;22617;43.690;27.956;2024-02-26T09:02:51;98668.00;;;14.80;100.00
18697;BME280;22617;43.690;27.956;2024-02-26T09:07:55;98667.97;;;14.81;100.00
18697;BME280;22617;43.690;27.956;2024-02-26T09:13:00;98659.28;;;15.41;100.00
18697;BME280;22617;43.690;27.956;2024-02-26T09:18:04;98655.66;;;15.76;100.00
18697;BME280;22617;43.690;27.956;2024-02-26T09:23:07;98661.50;;;15.56;96.84
18697;BME280;22617;43.690;27.956;2024-02-26T09:28:13;98657.53;;;16.00;98.49
18697;BME280;22617;43.690;27.956;2024-02-26T09:33:18;98652.84;;;16.36;97.98
18697;BME280;22617;43.690;27.956;2024-02-26T09:38:22;98651.88;;;16.67;95.47
18697;BME280;22617;43.690;27.956;2024-02-26T09:43:33;98658.09;;;16.10;94.58
18697;BME280;22617;43.690;27.956;2024-02-26T09:48:37;98656.19;;;16.41;96.15
18697;BME280;22617;43.690;27.956;2024-02-26T09:53:43;98647.25;;;16.98;88.66
18697;BME280;22617;43.690;27.956;2024-02-26T09:58:50;98645.47;;;17.23;79.65
18697;BME280;22617;43.690;27.956;2024-02-26T10:03:57;98643.16;;;17.37;86.94
18697;BME280;22617;43.690;27.956;2024-02-26T10:09:01;98638.53;;;17.44;82.15
18697;BME280;22617;43.690;27.956;2024-02-26T10:14:09;98642.69;;;17.96;76.72
18697;BME280;22617;43.690;27.956;2024-02-26T10:19:25;98644.72;;;17.90;79.89
18697;BME280;22617;43.690;27.956;2024-02-26T10:24:29;98640.09;;;17.73;70.92
18697;BME280;22617;43.690;27.956;2024-02-26T10:29:34;98630.69;;;18.11;68.81
18697;BME280;22617;43.690;27.956;2024-02-26T10:34:39;98623.09;;;18.03;77.67
18697;BME280;22617;43.690;27.956;2024-02-26T10:39:47;98618.66;;;18.67;68.30
18697;BME280;22617;43.690;27.956;2024-02-26T10:44:52;98617.44;;;18.95;63.79
18697;BME280;22617;43.690;27.956;2024-02-26T10:49:56;98604.03;;;19.20;62.60
18697;BME280;22617;43.690;27.956;2024-02-26T10:55:00;98605.03;;;19.17;65.33
18697;BME280;22617;43.690;27.956;2024-02-26T11:00:10;98607.19;;;18.68;69.79
18697;BME280;22617;43.690;27.956;2024-02-26T11:05:15;98605.88;;;19.17;65.88
18697;BME280;22617;43.690;27.956;2024-02-26T11:10:21;98605.41;;;18.47;72.22
18697;BME280;22617;43.690;27.956;2024-02-26T11:15:28;98602.75;;;18.89;63.09
18697;BME280;22617;43.690;27.956;2024-02-26T11:20:38;98595.59;;;19.11;59.23
18697;BME280;22617;43.690;27.956;2024-02-26T11:25:42;98589.94;;;18.80;58.74
18697;BME280;22617;43.690;27.956;2024-02-26T11:30:49;98589.78;;;18.43;63.14
18697;BME280;22617;43.690;27.956;2024-02-26T11:35:53;98587.69;;;18.91;60.19
18697;BME280;22617;43.690;27.956;2024-02-26T11:40:58;98582.66;;;18.85;60.01
18697;BME280;22617;43.690;27.956;2024-02-26T11:46:03;98594.81;;;19.28;55.67
18697;BME280;22617;43.690;27.956;2024-02-26T11:51:07;98585.25;;;18.66;55.72
18697;BME280;22617;43.690;27.956;2024-02-26T11:56:23;98589.75;;;18.22;56.75
18697;BME280;22617;43.690;27.956;2024-02-26T12:01:43;98573.81;;;18.46;59.40
18697;BME280;22617;43.690;27.956;2024-02-26T12:06:53;98578.53;;;18.59;57.43
18697;BME280;22617;43.690;27.956;2024-02-26T12:11:59;98579.22;;;19.03;55.78
18697;BME280;22617;43.690;27.956;2024-02-26T12:17:04;98590.22;;;18.74;55.49
18697;BME280;22617;43.690;27.956;2024-02-26T12:22:13;98590.38;;;18.49;57.53
18697;BME280;22617;43.690;27.956;2024-02-26T12:27:16;98582.06;;;18.38;57.10
18697;BME280;22617;43.690;27.956;2024-02-26T12:32:21;98582.81;;;18.20;53.58
18697;BME280;22617;43.690;27.956;2024-02-26T12:37:27;98584.25;;;18.07;52.89
18697;BME280;22617;43.690;27.956;2024-02-26T12:42:31;98590.88;;;17.95;52.29
18697;BME280;22617;43.690;27.956;2024-02-26T12:47:43;98589.97;;;17.96;50.47
18697;BME280;22617;43.690;27.956;2024-02-26T12:52:51;98590.78;;;17.98;51.71
18697;BME280;22617;43.690;27.956;2024-02-26T12:57:55;98587.38;;;18.16;55.36
18697;BME280;22617;43.690;27.956;2024-02-26T13:03:00;98597.88;;;17.96;57.94
18697;BME280;22617;43.690;27.956;2024-02-26T13:08:05;98593.69;;;17.69;58.04
18697;BME280;22617;43.690;27.956;2024-02-26T13:13:11;98589.78;;;17.56;58.00
18697;BME280;22617;43.690;27.956;2024-02-26T13:18:16;98593.34;;;17.08;62.77
18697;BME280;22617;43.690;27.956;2024-02-26T13:23:19;98596.81;;;16.85;62.49
18697;BME280;22617;43.690;27.956;2024-02-26T13:28:23;98594.09;;;16.64;67.47
18697;BME280;22617;43.690;27.956;2024-02-26T13:33:31;98599.22;;;16.40;68.01
18697;BME280;22617;43.690;27.956;2024-02-26T13:38:35;98602.31;;;16.53;66.97
18697;BME280;22617;43.690;27.956;2024-02-26T13:43:38;98611.13;;;15.72;75.86
18697;BME280;22617;43.690;27.956;2024-02-26T13:48:43;98618.69;;;15.82;80.72
18697;BME280;22617;43.690;27.956;2024-02-26T13:53:47;98611.28;;;15.36;80.21
18697;BME280;22617;43.690;27.956;2024-02-26T13:58:50;98616.31;;;15.14;81.53
18697;BME280;22617;43.690;27.956;2024-02-26T14:03:55;98627.44;;;14.92;79.32
18697;BME280;22617;43.690;27.956;2024-02-26T14:08:59;98617.50;;;15.03;89.26
18697;BME280;22617;43.690;27.956;2024-02-26T14:14:03;98623.66;;;14.71;91.06
18697;BME280;22617;43.690;27.956;2024-02-26T14:19:08;98630.41;;;14.47;99.22
18697;BME280;22617;43.690;27.956;2024-02-26T14:24:16;98633.38;;;14.32;95.79
18697;BME280;22617;43.690;27.956;2024-02-26T14:29:20;98639.94;;;14.14;99.02
18697;BME280;22617;43.690;27.956;2024-02-26T14:34:26;98641.09;;;13.64;100.00
18697;BME280;22617;43.690;27.956;2024-02-26T14:39:31;98642.50;;;13.39;100.00
18697;BME280;22617;43.690;27.956;2024-02-26T14:44:35;98652.50;;;13.20;100.00
18697;BME280;22617;43.690;27.956;2024-02-26T14:49:40;98648.34;;;13.08;100.00
18697;BME280;22617;43.690;27.956;2024-02-26T14:54:43;98658.41;;;12.85;100.00
18697;BME280;22617;43.690;27.956;2024-02-26T14:59:47;98656.78;;;12.77;100.00
18697;BME280;22617;43.690;27.956;2024-02-26T15:04:53;98664.44;;;12.87;100.00
18697;BME280;22617;43.690;27.956;2024-02-26T15:09:57;98672.97;;;12.51;100.00
18697;BME280;22617;43.690;27.956;2024-02-26T15:15:02;98670.06;;;12.14;100.00
18697;BME280;22617;43.690;27.956;2024-02-26T15:20:09;98669.91;;;11.65;100.00
18697;BME280;22617;43.690;27.956;2024-02-26T15:25:13;98678.91;;;11.41;100.00
18697;BME280;22617;43.690;27.956;2024-02-26T15:30:19;98679.28;;;11.09;100.00
18697;BME280;22617;43.690;27.956;2024-02-26T15:35:24;98684.78;;;10.83;100.00
18697;BME280;22617;43.690;27.956;2024-02-26T15:40:27;98686.63;;;10.72;100.00
18697;BME280;22617;43.690;27.956;2024-02-26T15:45:31;98691.16;;;10.54;100.00
18697;BME280;22617;43.690;27.956;2024-02-26T15:50:37;98693.06;;;10.35;100.00
18697;BME280;22617;43.690;27.956;2024-02-26T15:55:43;98704.38;;;10.31;100.00
18697;BME280;22617;43.690;27.956;2024-02-26T16:00:47;98701.84;;;10.14;100.00
18697;BME280;22617;43.690;27.956;2024-02-26T16:05:52;98696.81;;;9.88;100.00
18697;BME280;22617;43.690;27.956;2024-02-26T16:10:56;98712.53;;;9.73;100.00
18697;BME280;22617;43.690;27.956;2024-02-26T16:16:04;98723.00;;;9.61;100.00
18697;BME280;22617;43.690;27.956;2024-02-26T16:21:10;98726.53;;;9.45;100.00
18697;BME280;22617;43.690;27.956;2024-02-26T16:26:13;98732.63;;;9.42;100.00
18697;BME280;22617;43.690;27.956;2024-02-26T16:31:17;98727.41;;;9.48;100.00
18697;BME280;22617;43.690;27.956;2024-02-26T16:36:22;98740.34;;;9.54;100.00
18697;BME280;22617;43.690;27.956;2024-02-26T16:41:26;98741.28;;;9.41;100.00
18697;BME280;22617;43.690;27.956;2024-02-26T16:46:30;98750.84;;;9.32;100.00
18697;BME280;22617;43.690;27.956;2024-02-26T16:51:36;98747.41;;;9.34;100.00
18697;BME280;22617;43.690;27.956;2024-02-26T16:56:40;98754.38;;;9.15;100.00
18697;BME280;22617;43.690;27.956;2024-02-26T17:01:45;98750.88;;;9.23;100.00
18697;BME280;22617;43.690;27.956;2024-02-26T17:06:50;98760.44;;;9.13;100.00
18697;BME280;22617;43.690;27.956;2024-02-26T17:11:55;98762.19;;;9.08;100.00
18697;BME280;22617;43.690;27.956;2024-02-26T17:16:59;98764.75;;;9.18;100.00
18697;BME280;22617;43.690;27.956;2024-02-26T17:22:08;98770.88;;;8.95;100.00
18697;BME280;22617;43.690;27.956;2024-02-26T17:27:13;98768.25;;;9.13;100.00
18697;BME280;22617;43.690;27.956;2024-02-26T17:32:16;98763.88;;;9.26;100.00
18697;BME280;22617;43.690;27.956;2024-02-26T17:37:21;98768.25;;;9.08;100.00
18697;BME280;22617;43.690;27.956;2024-02-26T17:42:26;98766.53;;;9.00;100.00
18697;BME280;22617;43.690;27.956;2024-02-26T17:47:30;98770.88;;;9.01;100.00
18697;BME280;22617;43.690;27.956;2024-02-26T17:52:35;98777.78;;;8.93;100.00
18697;BME280;22617;43.690;27.956;2024-02-26T17:57:40;98776.94;;;8.88;100.00
18697;BME280;22617;43.690;27.956;2024-02-26T18:02:43;98777.78;;;9.02;100.00
18697;BME280;22617;43.690;27.956;2024-02-26T18:07:48;98791.66;;;9.08;100.00
18697;BME280;22617;43.690;27.956;2024-02-26T18:12:52;98801.19;;;9.05;100.00
18697;BME280;22617;43.690;27.956;2024-02-26T18:18:00;98798.56;;;9.02;100.00
18697;BME280;22617;43.690;27.956;2024-02-26T18:23:05;98805.53;;;9.01;100.00
18697;BME280;22617;43.690;27.956;2024-02-26T18:28:09;98809.88;;;8.87;100.00
18697;BME280;22617;43.690;27.956;2024-02-26T18:33:14;98819.41;;;8.81;100.00
18697;BME280;22617;43.690;27.956;2024-02-26T18:38:19;98815.94;;;8.89;100.00
18697;BME280;22617;43.690;27.956;2024-02-26T18:43:23;98815.94;;;8.91;100.00
18697;BME280;22617;43.690;27.956;2024-02-26T18:48:29;98805.53;;;8.82;100.00
18697;BME280;22617;43.690;27.956;2024-02-26T18:53:37;98807.28;;;8.81;100.00
18697;BME280;22617;43.690;27.956;2024-02-26T18:58:42;98818.53;;;8.98;100.00
18697;BME280;22617;43.690;27.956;2024-02-26T19:03:45;98822.88;;;8.87;100.00
18697;BME280;22617;43.690;27.956;2024-02-26T19:08:50;98816.81;;;8.87;100.00
18697;BME280;22617;43.690;27.956;2024-02-26T19:13:54;98820.25;;;8.81;100.00
18697;BME280;22617;43.690;27.956;2024-02-26T19:18:59;98814.19;;;8.81;100.00
18697;BME280;22617;43.690;27.956;2024-02-26T19:24:04;98817.66;;;8.77;100.00
18697;BME280;22617;43.690;27.956;2024-02-26T19:29:08;98814.19;;;8.76;100.00
18697;BME280;22617;43.690;27.956;2024-02-26T19:34:12;98808.13;;;8.69;100.00
18697;BME280;22617;43.690;27.956;2024-02-26T19:39:17;98817.66;;;8.72;100.00
18697;BME280;22617;43.690;27.956;2024-02-26T19:44:21;98822.84;;;8.83;100.00
18697;BME280;22617;43.690;27.956;2024-02-26T19:49:24;98825.44;;;8.84;100.00
18697;BME280;22617;43.690;27.956;2024-02-26T19:54:31;98827.19;;;8.74;100.00
18697;BME280;22617;43.690;27.956;2024-02-26T19:59:35;98819.41;;;8.78;100.00
18697;BME280;22617;43.690;27.956;2024-02-26T20:04:38;98830.63;;;8.73;100.00
18697;BME280;22617;43.690;27.956;2024-02-26T20:09:43;98828.06;;;8.66;100.00
18697;BME280;22617;43.690;27.956;2024-02-26T20:14:47;98829.78;;;8.67;100.00
18697;BME280;22617;43.690;27.956;2024-02-26T20:19:51;98832.38;;;8.68;100.00
18697;BME280;22617;43.690;27.956;2024-02-26T20:25:01;98837.59;;;8.71;100.00
18697;BME280;22617;43.690;27.956;2024-02-26T20:30:06;98846.22;;;8.69;100.00
18697;BME280;22617;43.690;27.956;2024-02-26T20:35:10;98849.69;;;8.74;100.00
18697;BME280;22617;43.690;27.956;2024-02-26T20:40:16;98844.53;;;8.68;100.00
18697;BME280;22617;43.690;27.956;2024-02-26T20:45:22;98838.44;;;8.70;100.00
18697;BME280;22617;43.690;27.956;2024-02-26T20:50:30;98847.97;;;8.70;100.00
18697;BME280;22617;43.690;27.956;2024-02-26T20:55:36;98841.91;;;8.79;100.00
18697;BME280;22617;43.690;27.956;2024-02-26T21:00:41;98848.84;;;8.77;100.00
18697;BME280;22617;43.690;27.956;2024-02-26T21:05:57;98847.13;;;8.91;100.00
18697;BME280;22617;43.690;27.956;2024-02-26T21:11:03;98843.66;;;8.77;100.00
18697;BME280;22617;43.690;27.956;2024-02-26T21:16:08;98841.06;;;8.72;100.00
18697;BME280;22617;43.690;27.956;2024-02-26T21:21:12;98841.03;;;8.75;100.00
18697;BME280;22617;43.690;27.956;2024-02-26T21:26:17;98845.38;;;8.65;100.00
18697;BME280;22617;43.690;27.956;2024-02-26T21:31:21;98857.47;;;8.60;100.00
18697;BME280;22617;43.690;27.956;2024-02-26T21:36:24;98860.13;;;8.72;100.00
18697;BME280;22617;43.690;27.956;2024-02-26T21:41:29;98859.22;;;8.63;100.00
18697;BME280;22617;43.690;27.956;2024-02-26T21:46:33;98854.91;;;8.74;100.00
18697;BME280;22617;43.690;27.956;2024-02-26T21:51:42;98856.63;;;8.78;100.00
18697;BME280;22617;43.690;27.956;2024-02-26T21:56:47;98868.78;;;8.76;100.00
18697;BME280;22617;43.690;27.956;2024-02-26T22:01:52;98860.97;;;8.79;100.00
18697;BME280;22617;43.690;27.956;2024-02-26T22:06:56;98862.72;;;8.82;100.00
18697;BME280;22617;43.690;27.956;2024-02-26T22:12:01;98861.84;;;8.84;100.00
18697;BME280;22617;43.690;27.956;2024-02-26T22:17:04;98867.88;;;8.63;100.00
18697;BME280;22617;43.690;27.956;2024-02-26T22:22:08;98869.63;;;8.67;100.00
18697;BME280;22617;43.690;27.956;2024-02-26T22:27:14;98866.13;;;8.68;100.00
18697;BME280;22617;43.690;27.956;2024-02-26T22:32:17;98872.22;;;8.61;100.00
18697;BME280;22617;43.690;27.956;2024-02-26T22:37:21;98868.75;;;8.61;100.00
18697;BME280;22617;43.690;27.956;2024-02-26T22:42:26;98867.88;;;8.79;100.00
18697;BME280;22617;43.690;27.956;2024-02-26T22:47:30;98879.13;;;8.64;100.00
18697;BME280;22617;43.690;27.956;2024-02-26T22:52:34;98885.22;;;8.58;100.00
18697;BME280;22617;43.690;27.956;2024-02-26T22:57:39;98896.44;;;8.60;100.00
18697;BME280;22617;43.690;27.956;2024-02-26T23:02:42;98890.41;;;8.58;100.00
18697;BME280;22617;43.690;27.956;2024-02-26T23:07:46;98891.25;;;8.62;100.00
18697;BME280;22617;43.690;27.956;2024-02-26T23:12:51;98895.59;;;8.58;100.00
18697;BME280;22617;43.690;27.956;2024-02-26T23:17:55;98891.25;;;8.53;100.00
18697;BME280;22617;43.690;27.956;2024-02-26T23:22:59;98888.63;;;8.54;100.00
18697;BME280;22617;43.690;27.956;2024-02-26T23:28:07;98895.56;;;8.51;100.00
18697;BME280;22617;43.690;27.956;2024-02-26T23:33:13;98891.25;;;8.57;100.00
18697;BME280;22617;43.690;27.956;2024-02-26T23:38:16;98895.59;;;8.61;100.00
18697;BME280;22617;43.690;27.956;2024-02-26T23:43:21;98897.31;;;8.65;100.00
18697;BME280;22617;43.690;27.956;2024-02-26T23:48:25;98904.25;;;8.57;100.00
18697;BME280;22617;43.690;27.956;2024-02-26T23:53:28;98914.63;;;8.57;100.00
18697;BME280;22617;43.690;27.956;2024-02-26T23:58:33;98910.31;;;8.68;100.00
